createdAt,value
2023-03-12T00:01:58.288Z,2.80
2023-03-12T00:04:24.556Z,2.30
2023-03-12T00:06:50.825Z,2.40
2023-03-12T00:09:17.088Z,2.57
2023-03-12T00:11:43.574Z,2.53
2023-03-12T00:14:09.842Z,2.27
2023-03-12T00:16:36.126Z,2.90
2023-03-12T00:19:02.440Z,2.67
2023-03-12T00:21:28.772Z,2.93
2023-03-12T00:23:55.044Z,2.60
2023-03-12T00:26:21.776Z,2.77
2023-03-12T00:28:48.740Z,2.60
2023-03-12T00:31:18.074Z,3.03
2023-03-12T00:33:45.101Z,2.60
2023-03-12T00:36:11.833Z,2.87
2023-03-12T00:38:38.164Z,2.77
2023-03-12T00:41:04.550Z,2.80
2023-03-12T00:43:30.826Z,2.70
2023-03-12T00:45:57.131Z,2.77
2023-03-12T00:48:23.509Z,2.40
2023-03-12T00:50:49.777Z,2.70
2023-03-12T00:53:16.136Z,2.63
2023-03-12T00:55:42.504Z,2.43
2023-03-12T00:58:08.775Z,2.60
2023-03-12T01:00:35.140Z,2.60
2023-03-12T01:03:01.683Z,2.70
2023-03-12T01:05:32.143Z,2.40
2023-03-12T01:07:59.191Z,2.30
2023-03-12T01:10:25.463Z,2.43
2023-03-12T01:12:51.800Z,2.53
2023-03-12T01:15:18.332Z,2.53
2023-03-12T01:17:44.750Z,2.43
2023-03-12T01:20:11.278Z,2.30
2023-03-12T01:22:37.996Z,2.60
2023-03-12T01:25:04.407Z,2.37
2023-03-12T01:27:30.688Z,2.73
2023-03-12T01:29:57.044Z,2.73
2023-03-12T01:32:23.516Z,2.83
2023-03-12T01:34:49.854Z,2.77
2023-03-12T01:37:16.128Z,3.00
2023-03-12T01:39:42.471Z,2.90
2023-03-12T01:42:08.742Z,2.70
2023-03-12T01:44:55.731Z,2.93
2023-03-12T01:47:22.408Z,2.63
2023-03-12T01:49:49.902Z,2.93
2023-03-12T01:52:36.446Z,2.63
2023-03-12T01:55:05.384Z,2.83
2023-03-12T01:57:36.165Z,3.00
2023-03-12T02:00:07.619Z,3.30
2023-03-12T02:02:35.151Z,2.67
2023-03-12T02:05:11.809Z,3.27
2023-03-12T02:10:59.728Z,3.20
2023-03-12T02:13:26.076Z,3.30
2023-03-12T02:15:52.453Z,2.97
2023-03-12T02:18:19.264Z,3.30
2023-03-12T02:20:49.520Z,3.70
2023-03-12T02:23:15.816Z,3.40
2023-03-12T02:25:43.899Z,3.50
2023-03-12T02:28:12.782Z,3.60
2023-03-12T02:30:39.980Z,4.30
2023-03-12T02:33:07.534Z,4.07
2023-03-12T02:35:34.319Z,4.10
2023-03-12T02:38:00.880Z,4.40
2023-03-12T02:40:33.431Z,4.83
2023-03-12T02:43:01.226Z,5.10
2023-03-12T02:45:29.809Z,4.73
2023-03-12T02:47:56.119Z,4.83
2023-03-12T02:50:22.561Z,5.63
2023-03-12T02:52:48.904Z,5.40
2023-03-12T02:55:15.230Z,5.63
2023-03-12T02:57:43.625Z,5.67
2023-03-12T03:00:12.332Z,5.57
2023-03-12T03:02:39.474Z,5.80
2023-03-12T03:05:06.093Z,5.80
2023-03-12T03:07:32.451Z,5.80
2023-03-12T03:10:04.022Z,6.83
2023-03-12T03:12:31.163Z,5.80
2023-03-12T03:14:57.524Z,5.87
2023-03-12T03:17:24.489Z,5.53
2023-03-12T03:19:51.494Z,5.80
2023-03-12T03:22:18.513Z,5.63
2023-03-12T03:24:44.862Z,6.00
2023-03-12T03:27:11.421Z,5.93
2023-03-12T03:29:37.787Z,6.03
2023-03-12T03:32:04.466Z,5.93
2023-03-12T03:34:30.961Z,6.27
2023-03-12T03:36:57.299Z,7.13
2023-03-12T03:39:25.130Z,6.93
2023-03-12T03:41:52.169Z,7.90
2023-03-12T03:44:18.751Z,8.37
2023-03-12T03:46:45.196Z,8.70
2023-03-12T03:49:11.566Z,8.13
2023-03-12T03:51:37.966Z,7.93
2023-03-12T03:54:04.307Z,8.00
2023-03-12T03:56:30.596Z,8.60
2023-03-12T03:58:57.853Z,8.50
2023-03-12T04:01:24.132Z,9.30
2023-03-12T04:03:50.412Z,8.90
2023-03-12T04:06:16.735Z,9.23
2023-03-12T04:08:43.128Z,9.67
2023-03-12T04:11:10.886Z,10.33
2023-03-12T04:13:37.583Z,10.03
2023-03-12T04:16:04.322Z,10.50
2023-03-12T04:18:30.661Z,10.03
2023-03-12T04:20:57.028Z,10.23
2023-03-12T04:23:23.492Z,9.93
2023-03-12T04:25:49.828Z,10.60
2023-03-12T04:28:16.229Z,10.07
2023-03-12T04:30:42.567Z,9.80
2023-03-12T04:33:08.907Z,9.97
2023-03-12T04:35:36.543Z,10.57
2023-03-12T04:38:04.060Z,10.77
2023-03-12T04:40:30.467Z,10.67
2023-03-12T04:42:56.812Z,10.77
2023-03-12T04:45:23.200Z,10.77
2023-03-12T04:47:49.581Z,10.97
2023-03-12T04:50:15.955Z,11.17
2023-03-12T04:52:43.416Z,10.13
2023-03-12T04:55:09.831Z,11.33
2023-03-12T04:57:36.142Z,11.67
2023-03-12T05:00:02.871Z,11.47
2023-03-12T05:02:29.242Z,11.77
2023-03-12T05:04:56.481Z,12.10
2023-03-12T05:07:22.811Z,11.87
2023-03-12T05:09:49.118Z,12.07
2023-03-12T05:12:15.538Z,12.77
2023-03-12T05:14:41.902Z,12.73
2023-03-12T05:17:08.188Z,13.63
2023-03-12T05:19:34.554Z,13.00
2023-03-12T05:22:01.002Z,13.10
2023-03-12T05:24:28.526Z,12.80
2023-03-12T05:26:54.828Z,12.60
2023-03-12T05:29:21.328Z,12.73
2023-03-12T05:31:47.788Z,14.40
2023-03-12T05:34:14.245Z,13.97
2023-03-12T05:36:40.582Z,14.57
2023-03-12T05:39:07.405Z,13.37
2023-03-12T05:41:33.711Z,12.93
2023-03-12T05:44:00.146Z,13.03
2023-03-12T05:46:27.181Z,13.20
2023-03-12T05:48:53.899Z,13.07
2023-03-12T05:51:20.868Z,12.30
2023-03-12T05:53:47.207Z,13.27
2023-03-12T05:56:16.488Z,14.83
2023-03-12T05:58:42.868Z,12.33
2023-03-12T06:01:17.135Z,12.03
2023-03-12T06:03:43.519Z,11.47
2023-03-12T06:06:10.106Z,11.80
2023-03-12T06:08:36.406Z,11.33
2023-03-12T06:11:02.807Z,12.33
2023-03-12T06:13:29.266Z,12.37
2023-03-12T06:16:01.125Z,11.93
2023-03-12T06:18:27.444Z,12.07
2023-03-12T06:20:53.739Z,16.17
2023-03-12T06:23:21.580Z,12.43
2023-03-12T06:25:47.988Z,11.63
2023-03-12T06:28:14.309Z,12.23
2023-03-12T06:30:40.717Z,13.17
2023-03-12T06:33:08.859Z,12.27
2023-03-12T06:35:35.978Z,12.10
2023-03-12T06:38:02.414Z,11.47
2023-03-12T06:40:28.843Z,12.63
2023-03-12T06:42:55.154Z,13.57
2023-03-12T06:45:21.467Z,16.00
2023-03-12T06:47:47.791Z,16.43
2023-03-12T06:50:14.133Z,13.73
2023-03-12T06:52:40.593Z,16.40
2023-03-12T06:55:07.121Z,10.57
2023-03-12T06:57:33.464Z,12.03
2023-03-12T06:59:59.754Z,17.50
2023-03-12T07:02:26.090Z,13.37
2023-03-12T07:04:52.558Z,10.37
2023-03-12T07:07:20.006Z,13.70
2023-03-12T07:09:46.330Z,29.07
2023-03-12T07:12:12.742Z,35.03
2023-03-12T07:14:39.035Z,22.10
2023-03-12T07:17:05.456Z,32.23
2023-03-12T07:19:32.163Z,33.70
2023-03-12T07:21:58.580Z,27.70
2023-03-12T07:24:25.031Z,39.60
2023-03-12T07:26:51.337Z,33.00
2023-03-12T07:29:17.669Z,35.97
2023-03-12T07:31:44.091Z,44.20
2023-03-12T07:34:10.508Z,39.23
2023-03-12T07:36:36.975Z,41.53
2023-03-12T07:39:04.529Z,36.90
2023-03-12T07:41:30.889Z,33.40
2023-03-12T07:43:57.312Z,35.30
2023-03-12T07:46:23.846Z,35.00
2023-03-12T07:48:50.181Z,34.27
2023-03-12T07:51:17.086Z,36.57
2023-03-12T07:53:43.439Z,27.97
2023-03-12T07:56:09.916Z,26.80
2023-03-12T07:58:36.593Z,13.30
2023-03-12T08:01:03.136Z,16.13
2023-03-12T08:03:30.631Z,17.23
2023-03-12T08:05:58.756Z,14.53
2023-03-12T08:08:25.478Z,8.87
2023-03-12T08:10:52.229Z,9.43
2023-03-12T08:13:19.061Z,12.73
2023-03-12T08:15:45.362Z,11.97
2023-03-12T08:18:11.726Z,11.10
2023-03-12T08:20:38.032Z,10.80
2023-03-12T08:23:04.385Z,14.00
2023-03-12T08:25:30.822Z,10.17
2023-03-12T08:27:57.150Z,10.93
2023-03-12T08:30:23.467Z,10.20
2023-03-12T08:32:49.913Z,16.07
2023-03-12T08:35:16.427Z,21.43
2023-03-12T08:37:42.716Z,32.03
2023-03-12T08:40:13.273Z,16.40
2023-03-12T08:42:40.862Z,8.00
2023-03-12T08:45:07.487Z,12.73
2023-03-12T08:47:33.808Z,9.93
2023-03-12T08:50:00.261Z,10.80
2023-03-12T08:52:26.602Z,13.50
2023-03-12T08:54:52.917Z,17.43
2023-03-12T08:57:19.239Z,10.27
2023-03-12T08:59:45.664Z,7.97
2023-03-12T09:02:12.510Z,6.23
2023-03-12T09:04:38.863Z,6.90
2023-03-12T09:07:05.588Z,7.10
2023-03-12T09:09:32.399Z,5.57
2023-03-12T09:11:58.747Z,6.47
2023-03-12T09:17:11.397Z,6.30
2023-03-12T09:19:37.690Z,5.78
2023-03-12T09:22:04.134Z,6.20
2023-03-12T09:24:30.448Z,5.63
2023-03-12T09:26:56.831Z,10.00
2023-03-12T09:29:23.542Z,6.32
2023-03-12T09:31:50.034Z,5.10
2023-03-12T09:34:16.660Z,5.72
2023-03-12T09:36:43.055Z,6.05
2023-03-12T09:39:09.387Z,6.13
2023-03-12T09:41:38.865Z,5.93
2023-03-12T09:44:23.912Z,5.53
2023-03-12T09:46:51.860Z,5.40
2023-03-12T09:49:22.204Z,5.50
2023-03-12T09:51:53.984Z,6.00
2023-03-12T09:54:23.683Z,4.45
2023-03-12T09:56:51.129Z,5.47
2023-03-12T09:59:17.488Z,5.93
2023-03-12T10:01:47.900Z,6.47
2023-03-12T10:04:24.438Z,4.82
2023-03-12T10:07:12.874Z,5.90
2023-03-12T10:09:48.388Z,6.07
2023-03-12T10:12:21.981Z,6.95
2023-03-12T10:14:55.792Z,5.90
2023-03-12T10:17:32.644Z,5.78
2023-03-12T10:20:17.728Z,6.20
2023-03-12T10:22:49.235Z,5.45
2023-03-12T10:25:21.940Z,10.55
2023-03-12T10:27:48.924Z,6.70
2023-03-12T10:30:20.919Z,6.65
2023-03-12T10:32:49.996Z,5.93
2023-03-12T10:35:21.636Z,5.38
2023-03-12T10:37:48.222Z,5.55
2023-03-12T10:40:16.212Z,6.53
2023-03-12T10:42:43.075Z,5.28
2023-03-12T10:45:09.402Z,4.85
2023-03-12T10:47:42.272Z,6.15
2023-03-12T10:50:11.653Z,7.53
2023-03-12T10:52:37.962Z,6.30
2023-03-12T10:55:11.640Z,6.53
2023-03-12T10:57:41.718Z,7.63
2023-03-12T11:00:11.958Z,7.03
2023-03-12T11:02:38.255Z,6.40
2023-03-12T11:05:19.384Z,7.57
2023-03-12T11:07:45.736Z,6.28
2023-03-12T11:10:14.175Z,6.93
2023-03-12T11:12:50.761Z,7.47
2023-03-12T11:15:28.983Z,7.55
2023-03-12T11:18:14.143Z,6.90
2023-03-12T11:20:40.496Z,6.50
2023-03-12T11:23:14.197Z,6.43
2023-03-12T11:25:40.522Z,6.57
2023-03-12T11:28:12.095Z,7.20
2023-03-12T11:30:39.789Z,6.53
2023-03-12T11:33:06.445Z,6.95
2023-03-12T11:35:51.588Z,7.07
2023-03-12T11:38:17.892Z,7.03
2023-03-12T11:40:53.348Z,5.70
2023-03-12T11:43:43.253Z,5.72
2023-03-12T11:46:30.469Z,5.47
2023-03-12T11:49:08.950Z,5.90
2023-03-12T11:51:58.372Z,4.95
2023-03-12T11:54:27.543Z,5.28
2023-03-12T11:57:06.208Z,5.40
2023-03-12T11:59:50.682Z,4.63
2023-03-12T12:02:17.026Z,5.25
2023-03-12T12:04:46.462Z,4.72
2023-03-12T12:07:32.919Z,3.78
2023-03-12T12:10:07.624Z,4.82
2023-03-12T12:12:36.999Z,3.90
2023-03-12T12:15:09.104Z,4.15
2023-03-12T12:17:53.874Z,4.68
2023-03-12T12:20:21.506Z,4.60
2023-03-12T12:23:06.082Z,4.50
2023-03-12T12:25:51.239Z,4.32
2023-03-12T12:28:23.921Z,3.40
2023-03-12T12:30:57.703Z,4.65
2023-03-12T12:34:01.357Z,5.10
2023-03-12T12:36:29.669Z,4.63
2023-03-12T12:39:01.224Z,4.32
2023-03-12T12:41:30.384Z,3.90
2023-03-12T12:44:02.403Z,5.40
2023-03-12T12:46:32.356Z,5.13
2023-03-12T12:49:32.096Z,5.03
2023-03-12T12:52:00.870Z,4.18
2023-03-12T12:54:35.333Z,4.25
2023-03-12T12:57:01.676Z,3.75
2023-03-12T12:59:31.815Z,4.05
2023-03-12T13:01:59.507Z,3.78
2023-03-12T13:04:25.859Z,4.13
2023-03-12T13:06:58.346Z,4.40
2023-03-12T13:09:44.753Z,3.53
2023-03-12T13:12:20.256Z,3.63
2023-03-12T13:14:47.526Z,3.47
2023-03-12T13:17:27.694Z,4.03
2023-03-12T13:20:01.654Z,4.28
2023-03-12T13:22:46.847Z,3.90
2023-03-12T13:25:19.203Z,3.70
2023-03-12T13:27:46.017Z,4.40
2023-03-12T13:30:31.132Z,4.80
2023-03-12T13:32:57.494Z,4.38
2023-03-12T13:35:23.940Z,4.30
2023-03-12T13:37:53.306Z,4.68
2023-03-12T13:40:28.687Z,5.05
2023-03-12T13:43:03.323Z,4.70
2023-03-12T13:45:31.830Z,4.18
2023-03-12T13:48:00.370Z,4.43
2023-03-12T13:50:27.394Z,4.50
2023-03-12T13:53:05.203Z,4.20
2023-03-12T13:55:33.019Z,4.60
2023-03-12T13:58:00.382Z,5.15
2023-03-12T14:00:31.943Z,4.50
2023-03-12T14:02:59.868Z,4.70
2023-03-12T14:05:26.559Z,4.53
2023-03-12T14:07:56.010Z,3.88
2023-03-12T14:10:48.732Z,4.20
2023-03-12T14:13:21.720Z,3.40
2023-03-12T14:15:57.437Z,4.07
2023-03-12T14:18:25.811Z,4.00
2023-03-12T14:20:56.594Z,3.88
2023-03-12T14:23:24.942Z,3.72
2023-03-12T14:25:53.920Z,3.97
2023-03-12T14:28:21.734Z,4.45
2023-03-12T14:31:03.508Z,4.10
2023-03-12T14:33:33.480Z,3.55
2023-03-12T14:36:29.136Z,3.92
2023-03-12T14:39:00.094Z,4.43
2023-03-12T14:41:31.158Z,3.55
2023-03-12T14:44:04.013Z,3.67
2023-03-12T14:46:30.857Z,4.05
2023-03-12T14:48:57.299Z,3.63
2023-03-12T14:51:25.587Z,3.90
2023-03-12T14:53:52.662Z,4.00
2023-03-12T14:56:30.458Z,3.75
2023-03-12T14:58:58.146Z,4.07
2023-03-12T15:01:26.528Z,4.00
2023-03-12T15:03:58.351Z,4.35
2023-03-12T15:06:30.802Z,3.95
2023-03-12T15:08:57.483Z,4.72
2023-03-12T15:11:25.478Z,4.10
2023-03-12T15:13:53.408Z,3.60
2023-03-12T15:16:20.353Z,3.90
2023-03-12T15:18:48.763Z,4.13
2023-03-12T15:21:15.216Z,4.07
2023-03-12T15:23:42.627Z,4.03
2023-03-12T15:26:30.574Z,4.13
2023-03-12T15:29:15.726Z,3.90
2023-03-12T15:31:43.191Z,4.18
2023-03-12T15:34:11.284Z,4.43
2023-03-12T15:36:39.118Z,4.43
2023-03-12T15:39:26.472Z,3.72
2023-03-12T15:41:53.553Z,3.50
2023-03-12T15:44:22.012Z,4.20
2023-03-12T15:46:49.875Z,3.83
2023-03-12T15:49:20.932Z,4.03
2023-03-12T15:51:57.937Z,3.20
2023-03-12T15:54:26.044Z,3.78
2023-03-12T15:56:52.349Z,4.05
2023-03-12T15:59:26.010Z,4.05
2023-03-12T16:01:53.579Z,3.75
2023-03-12T16:04:20.374Z,3.97
2023-03-12T16:06:49.162Z,3.85
2023-03-12T16:09:21.016Z,3.75
2023-03-12T16:11:47.828Z,3.80
2023-03-12T16:14:19.084Z,3.50
2023-03-12T16:16:45.500Z,3.88
2023-03-12T16:19:13.117Z,3.67
2023-03-12T16:21:39.574Z,3.97
2023-03-12T16:24:05.987Z,3.40
2023-03-12T16:26:34.333Z,3.95
2023-03-12T16:29:00.762Z,3.72
2023-03-12T16:31:27.162Z,4.40
2023-03-12T16:33:53.574Z,4.25
2023-03-12T16:36:19.940Z,3.58
2023-03-12T16:38:46.918Z,4.35
2023-03-12T16:41:14.289Z,3.67
2023-03-12T16:43:41.667Z,4.18
2023-03-12T16:46:09.521Z,4.85
2023-03-12T16:48:36.437Z,3.75
2023-03-12T16:51:03.297Z,3.97
2023-03-12T16:53:29.670Z,4.15
2023-03-12T16:56:00.687Z,3.65
2023-03-12T16:58:27.942Z,4.13
2023-03-12T17:00:54.943Z,4.10
2023-03-12T17:03:30.146Z,4.22
2023-03-12T17:05:57.520Z,4.43
2023-03-12T17:08:23.993Z,4.13
2023-03-12T17:10:50.393Z,4.22
2023-03-12T17:13:21.335Z,5.03
2023-03-12T17:15:48.024Z,4.53
2023-03-12T17:18:14.410Z,4.75
2023-03-12T17:20:42.109Z,4.95
2023-03-12T17:23:09.027Z,4.13
2023-03-12T17:25:36.318Z,4.13
2023-03-12T17:28:02.886Z,4.25
2023-03-12T17:30:30.522Z,4.50
2023-03-12T17:33:17.104Z,4.20
2023-03-12T17:35:44.143Z,4.00
2023-03-12T17:38:11.266Z,4.38
2023-03-12T17:40:41.483Z,4.88
2023-03-12T17:43:07.904Z,4.75
2023-03-12T17:45:35.881Z,4.28
2023-03-12T17:48:02.332Z,4.18
2023-03-12T17:50:28.635Z,4.57
2023-03-12T17:52:54.936Z,4.38
2023-03-12T17:55:21.254Z,4.07
2023-03-12T17:57:47.638Z,4.13
2023-03-12T18:00:14.112Z,4.53
2023-03-12T18:02:41.098Z,4.10
2023-03-12T18:05:08.350Z,3.90
2023-03-12T18:07:34.875Z,4.53
2023-03-12T18:10:01.356Z,4.30
2023-03-12T18:12:27.823Z,4.75
2023-03-12T18:14:54.130Z,4.18
2023-03-12T18:17:20.514Z,4.68
2023-03-12T18:19:46.814Z,4.53
2023-03-12T18:22:14.533Z,4.32
2023-03-12T18:24:41.485Z,4.63
2023-03-12T18:27:07.982Z,4.20
2023-03-12T18:29:35.636Z,4.38
2023-03-12T18:32:02.013Z,4.65
2023-03-12T18:34:28.374Z,4.57
2023-03-12T18:36:54.809Z,4.25
2023-03-12T18:39:21.146Z,3.90
2023-03-12T18:41:47.797Z,3.88
2023-03-12T18:44:14.112Z,3.80
2023-03-12T18:46:40.522Z,3.90
2023-03-12T18:49:07.804Z,5.50
2023-03-12T18:51:34.825Z,4.07
2023-03-12T18:54:01.659Z,4.45
2023-03-12T18:56:28.592Z,4.43
2023-03-12T18:58:55.127Z,3.90
2023-03-12T19:01:21.639Z,3.88
2023-03-12T19:03:48.008Z,4.22
2023-03-12T19:06:15.774Z,3.60
2023-03-12T19:08:42.530Z,3.90
2023-03-12T19:11:10.183Z,4.25
2023-03-12T19:13:36.624Z,3.95
2023-03-12T19:16:05.227Z,3.75
2023-03-12T19:18:31.576Z,4.20
2023-03-12T19:20:57.886Z,4.00
2023-03-12T19:23:24.275Z,4.10
2023-03-12T19:25:50.727Z,3.95
2023-03-12T19:28:17.057Z,3.55
2023-03-12T19:30:43.408Z,3.30
2023-03-12T19:33:09.860Z,3.85
2023-03-12T19:35:40.526Z,3.60
2023-03-12T19:38:07.460Z,3.63
2023-03-12T19:40:34.232Z,3.72
2023-03-12T19:43:01.337Z,3.33
2023-03-12T19:45:27.713Z,3.47
2023-03-12T19:47:54.141Z,3.40
2023-03-12T19:50:20.444Z,3.50
2023-03-12T19:52:47.434Z,3.45
2023-03-12T19:55:14.118Z,3.75
2023-03-12T19:57:40.646Z,3.67
2023-03-12T20:00:12.164Z,4.07
2023-03-12T20:02:39.140Z,3.40
2023-03-12T20:05:06.256Z,3.70
2023-03-12T20:07:32.624Z,3.08
2023-03-12T20:09:58.938Z,3.40
2023-03-12T20:12:25.444Z,3.80
2023-03-12T20:14:51.884Z,3.65
2023-03-12T20:17:18.199Z,3.60
2023-03-12T20:19:44.594Z,3.35
2023-03-12T20:22:10.961Z,3.92
2023-03-12T20:24:37.409Z,3.50
2023-03-12T20:27:04.503Z,4.00
2023-03-12T20:29:30.894Z,3.53
2023-03-12T20:31:57.287Z,3.85
2023-03-12T20:34:23.611Z,3.42
2023-03-12T20:36:49.972Z,4.32
2023-03-12T20:39:16.462Z,3.58
2023-03-12T20:41:42.813Z,3.50
2023-03-12T20:44:09.203Z,3.42
2023-03-12T20:46:35.516Z,4.43
2023-03-12T20:49:01.880Z,4.00
2023-03-12T20:51:28.181Z,3.80
2023-03-12T20:53:54.511Z,4.30
2023-03-12T20:56:20.895Z,4.20
2023-03-12T20:58:47.247Z,3.35
2023-03-12T21:01:13.691Z,4.38
2023-03-12T21:03:40.093Z,3.80
2023-03-12T21:06:06.482Z,4.22
2023-03-12T21:08:34.309Z,3.90
2023-03-12T21:11:00.593Z,3.55
2023-03-12T21:13:26.963Z,3.78
2023-03-12T21:15:53.367Z,3.45
2023-03-12T21:18:19.744Z,3.58
2023-03-12T21:20:46.209Z,3.55
2023-03-12T21:23:12.595Z,4.35
2023-03-12T21:25:40.105Z,3.50
2023-03-12T21:28:07.420Z,3.70
2023-03-12T21:30:33.883Z,3.55
2023-03-12T21:33:03.757Z,4.15
2023-03-12T21:35:30.234Z,3.80
2023-03-12T21:37:56.849Z,4.00
2023-03-12T21:40:23.305Z,4.05
2023-03-12T21:42:49.977Z,4.05
2023-03-12T21:45:16.335Z,4.60
2023-03-12T21:47:42.628Z,4.10
2023-03-12T21:50:09.590Z,5.10
2023-03-12T21:52:41.500Z,4.88
2023-03-12T21:55:10.019Z,4.85
2023-03-12T21:57:36.446Z,4.70
2023-03-12T22:00:04.311Z,4.35
2023-03-12T22:02:31.576Z,4.82
2023-03-12T22:05:00.904Z,4.60
2023-03-12T22:07:29.880Z,4.97
2023-03-12T22:09:56.304Z,4.47
2023-03-12T22:12:22.672Z,4.60
2023-03-12T22:14:48.982Z,4.22
2023-03-12T22:17:15.330Z,4.80
2023-03-12T22:19:42.090Z,4.45
2023-03-12T22:22:08.850Z,4.97
2023-03-12T22:24:35.158Z,4.50
2023-03-12T22:27:06.521Z,4.63
2023-03-12T22:29:33.238Z,5.00
2023-03-12T22:31:59.629Z,4.90
2023-03-12T22:34:26.020Z,4.45
2023-03-12T22:36:52.381Z,4.45
2023-03-12T22:39:19.840Z,4.93
2023-03-12T22:41:50.400Z,5.38
2023-03-12T22:44:16.786Z,5.65
2023-03-12T22:46:43.212Z,4.38
2023-03-12T22:49:09.596Z,4.10
2023-03-12T22:51:35.973Z,4.38
2023-03-12T22:54:02.390Z,4.13
2023-03-12T22:56:28.761Z,3.80
2023-03-12T22:58:55.467Z,4.00
2023-03-12T23:01:22.714Z,3.78
2023-03-12T23:03:49.780Z,3.97
2023-03-12T23:06:23.336Z,4.35
2023-03-12T23:08:49.914Z,3.55
2023-03-12T23:11:17.325Z,3.67
2023-03-12T23:13:44.766Z,4.05
2023-03-12T23:16:12.642Z,3.90
2023-03-12T23:18:39.308Z,3.67
2023-03-12T23:21:07.096Z,4.45
2023-03-12T23:23:33.503Z,3.67
2023-03-12T23:26:00.479Z,4.20
2023-03-12T23:28:27.695Z,3.58
2023-03-12T23:30:57.955Z,3.63
2023-03-12T23:33:25.094Z,3.80
2023-03-12T23:35:59.217Z,4.18
2023-03-12T23:38:26.233Z,4.15
2023-03-12T23:40:52.760Z,3.58
2023-03-12T23:43:19.439Z,4.03
2023-03-12T23:45:45.817Z,3.28
2023-03-12T23:48:12.189Z,3.42
2023-03-12T23:50:38.645Z,3.70
2023-03-12T23:53:05.088Z,3.50
2023-03-12T23:55:31.382Z,3.65
2023-03-12T23:57:57.742Z,4.57
